Maersk Neustadt — A8KX6 — position and weather

sailwx.info

Track history (hours):
 
Tides and Currents Weather Stations Pressure Air Temp Water Temp Dewpoint Dewpoint Depression Visibility Wind Speed Wind Dir Waves Ship Positions

Maersk Neustadt

Last reported at 2014-Aug-09 00:16 UTC. Time now 2014-Oct-21 05:35 UTC.
Position S 33°36' E 027°18'.
Warning: this ship's position is months out of date.

Type: Ship. MMSI: 636091227.

Date/timePositionNaut miles runAvg speedWind from/ knotsBaromVisibWave heightAir tempDewpointWater temp
2014-Aug-09 00:16S 33°36' E 027°18'810.0
2014-Aug-08 23:28S 33°39' E 027°10'1010.2
2014-Aug-08 22:30S 33°44' E 026°59'1310.5
2014-Aug-08 21:17S 33°50' E 026°46'1011.1
2014-Aug-08 20:24S 33°53' E 026°34'33610.9
2014-Aug-07 13:26S 34°57' E 019°55'1111.0
2014-Aug-07 12:25S 34°54' E 019°41'2111.1
2014-Aug-07 10:29S 34°46' E 019°17'1413.6
2014-Aug-07 09:26S 34°42' E 019°00'1717.8
2014-Aug-07 08:29S 34°36' E 018°41'1616.9
2014-Aug-07 07:33S 34°29' E 018°24'1916.8
2014-Aug-07 06:25S 34°13' E 018°13'2216.2
2014-Aug-07 05:03S 33°51' E 018°21'510.4
2014-Aug-07 04:33S 33°54' E 018°26'1 1.0
2014-Aug-07 03:33S 33°55' E 018°27'0 0.0
2014-Aug-07 02:33S 33°55' E 018°27'0 0.0
2014-Aug-07 01:28S 33°55' E 018°27'0 0.0
2014-Aug-07 00:33S 33°55' E 018°27'0 0.0
2014-Aug-06 23:31S 33°55' E 018°27'0 0.0
2014-Aug-06 22:33S 33°55' E 018°27'0 0.0
2014-Aug-06 21:32S 33°55' E 018°27'0 0.0
2014-Aug-06 20:31S 33°55' E 018°27'0 0.0
2014-Aug-06 19:31S 33°55' E 018°27'0 0.0
2014-Aug-06 18:33S 33°55' E 018°27'3 2.8
2014-Aug-06 17:33S 33°53' E 018°25'1 1.5
2014-Aug-06 16:33S 33°52' E 018°23'1 0.7
2014-Aug-06 15:32S 33°53' E 018°23'0 0.4
2014-Aug-06 14:33S 33°53' E 018°23'10 9.2
2014-Aug-06 13:29S 33°47' E 018°13'1312.4
2014-Aug-06 12:26S 33°39' E 018°00'10 9.3
2014-Aug-06 11:19S 33°34' E 017°49'18 9.3
2014-Aug-06 09:25S 33°19' E 017°40'10 9.4
2014-Aug-06 08:24S 33°10' E 017°35'  
Track history (hours):
 
Tides and Currents Weather Stations Pressure Air Temp Water Temp Dewpoint Dewpoint Depression Visibility Wind Speed Wind Dir Waves Ship Positions

Maersk Neustadt

Last reported at 2014-Aug-09 00:16 UTC. Time now 2014-Oct-21 05:35 UTC.
Position S 33°36' E 027°18'.
Warning: this ship's position is months out of date.

Type: Ship. MMSI: 636091227.

Date/timePositionNaut miles runAvg speedWind from/ knotsBaromVisibWave heightAir tempDewpointWater temp
2014-Aug-09 00:16S 33°36' E 027°18'810.0
2014-Aug-08 23:28S 33°39' E 027°10'1010.2
2014-Aug-08 22:30S 33°44' E 026°59'1310.5
2014-Aug-08 21:17S 33°50' E 026°46'1011.1
2014-Aug-08 20:24S 33°53' E 026°34'33610.9
2014-Aug-07 13:26S 34°57' E 019°55'1111.0
2014-Aug-07 12:25S 34°54' E 019°41'2111.1
2014-Aug-07 10:29S 34°46' E 019°17'1413.6
2014-Aug-07 09:26S 34°42' E 019°00'1717.8
2014-Aug-07 08:29S 34°36' E 018°41'1616.9
2014-Aug-07 07:33S 34°29' E 018°24'1916.8
2014-Aug-07 06:25S 34°13' E 018°13'2216.2
2014-Aug-07 05:03S 33°51' E 018°21'510.4
2014-Aug-07 04:33S 33°54' E 018°26'1 1.0
2014-Aug-07 03:33S 33°55' E 018°27'0 0.0
2014-Aug-07 02:33S 33°55' E 018°27'0 0.0
2014-Aug-07 01:28S 33°55' E 018°27'0 0.0
2014-Aug-07 00:33S 33°55' E 018°27'0 0.0
2014-Aug-06 23:31S 33°55' E 018°27'0 0.0
2014-Aug-06 22:33S 33°55' E 018°27'0 0.0
2014-Aug-06 21:32S 33°55' E 018°27'0 0.0
2014-Aug-06 20:31S 33°55' E 018°27'0 0.0
2014-Aug-06 19:31S 33°55' E 018°27'0 0.0
2014-Aug-06 18:33S 33°55' E 018°27'3 2.8
2014-Aug-06 17:33S 33°53' E 018°25'1 1.5
2014-Aug-06 16:33S 33°52' E 018°23'1 0.7
2014-Aug-06 15:32S 33°53' E 018°23'0 0.4
2014-Aug-06 14:33S 33°53' E 018°23'10 9.2
2014-Aug-06 13:29S 33°47' E 018°13'1312.4
2014-Aug-06 12:26S 33°39' E 018°00'10 9.3
2014-Aug-06 11:19S 33°34' E 017°49'18 9.3
2014-Aug-06 09:25S 33°19' E 017°40'10 9.4
2014-Aug-06 08:24S 33°10' E 017°35'  

Dump ship's entire track history